Last 30 Days

South Shandon (SLO-7)

Daily Data | America/Los_Angeles
as of 5/19/24 4:57 AM PDT
Date Daily Max Temp (°F) Time of Max Temp Daily Min Temp (°F) Time of Min Temp Daily Rain (In) Month Precip (In) Season Precip (In) Wind Spd (mph) Daily Max Wind (mph) Time of Max Wind Daily ETo (in) 7 Day ETo (in) Daily Solar Rad (Cal/cm2) Dew Pt (°F) Max RH (%) Min RH (%) Hrs 70-85F (hrs) Hrs > 95F (hrs) Powdery Mildew Stress (pts) GDDs (DL) GDDs (Mx/Mn) Seas GDDs (DL) Seas GDDs (Smpl) Max Inversion (°F) Max Inversion Time Min Inversion (°F) Min Inversion Time Max 1 Min Rain (In) Max 1 Min Rain Time Max 15 Min Rain (In) Max 15 Min Precip Time Max 60 Min Rain (In) Max 60 Min Rain Time Hrs <= 32F (hrs) Hrs <= 28F (hrs) Chilling <=45F (hrs) MinBV Day (V)
5/18/24 70.4 1414 44.1 0059 0.00 0.10 11.99 5.4 18.8 1512 0.159 1.46 584 48.7 88 55 0.05 0.00 90 6.5 7.2 408 337 4.1 0056 -6.8 1304 - - - - - - 0.0 0.0 0.1 12.5
5/17/24 74.1 1619 45.9 0101 0.00 0.10 11.99 4.1 19.8 1436 0.178 1.56 628 48.6 87 47 2.80 0.00 100 7.5 10.0 401 330 3.1 2246 -7.1 1312 - - - - - - 0.0 0.0 0.0 12.4
5/16/24 86.5 1617 43.4 0047 0.00 0.10 11.99 3.1 18.5 1457 0.201 1.63 602 47.8 95 26 6.60 0.00 100 11.2 15.0 394 320 5.3 0047 -6.9 1234 - - - - - - 0.0 0.0 0.4 12.4
5/15/24 85.1 1530 41.7 0600 0.00 0.10 11.99 3.4 14.8 1303 0.222 1.66 642 46.7 87 25 8.17 0.00 100 12.7 13.4 382 305 6.3 0150 -6.1 1504 - - - - - - 0.0 0.0 3.6 12.4
5/14/24 85.8 1514 39.1 0612 0.00 0.10 11.99 3.2 15.2 1427 0.214 1.66 618 45.3 88 26 7.43 0.00 90 12.6 12.4 370 291 5.8 0514 -5.9 1343 - - - - - - 0.0 0.0 5.5 12.4
5/13/24 86.6 1436 42.6 0521 0.00 0.10 11.99 3.4 16.8 1606 0.227 1.64 641 45.4 94 23 8.46 0.00 70 13.5 14.6 357 279 6.2 2359 -5.5 1309 - - - - - - 0.0 0.0 3.3 12.4
5/12/24 91.4 1620 42.9 0543 0.00 0.10 11.99 3.5 17.8 1707 0.259 1.59 667 46.0 86 20 2.98 0.00 80 17.5 17.1 344 264 8.8 2310 -5.6 1206 - - - - - - 0.0 0.0 2.3 12.3
5/11/24 91.7 1511 41.6 0545 0.00 0.10 11.99 3.6 19.2 1624 0.261 1.45 665 44.3 86 18 4.11 0.00 90 17.7 16.7 326 247 9.6 2355 -5.5 1401 - - - - - - 0.0 0.0 3.0 12.4
5/10/24 88.6 1433 37.5 0512 0.00 0.10 11.99 3.3 16.5 1740 0.247 1.27 660 42.0 86 14 3.52 0.00 100 16.2 13.0 308 230 9.3 2117 -5.5 1434 - - - - - - 0.0 0.0 5.3 12.4
5/9/24 83.9 1522 39.4 0624 0.00 0.10 11.99 3.0 20.2 1654 0.231 1.22 658 41.4 85 21 9.27 0.00 100 13.2 11.6 292 218 10.1 2147 -5.5 1335 - - - - - - 0.0 0.0 4.9 12.4
5/8/24 81.1 1613 35.1 0609 0.00 0.10 11.99 2.8 14.8 1736 0.217 1.21 666 36.9 87 18 8.50 0.00 90 12.3 8.1 279 206 11.1 2216 -5.6 1508 - - - - - - 0.0 0.0 6.8 12.4
5/7/24 78.5 1522 36.1 0315 0.00 0.10 11.99 2.7 14.2 1419 0.192 1.21 633 41.4 87 28 7.39 0.00 70 10.9 7.3 267 198 7.0 2321 -6.8 1222 - - - - - - 0.0 0.0 7.6 12.4
5/6/24 73.2 1619 30.3 0553 0.00 0.10 11.99 2.4 16.2 1334 0.180 1.22 637 36.7 89 26 3.11 0.00 80 7.4 1.8 256 190 10.6 2110 -6.3 1429 - - - - - - 1.3 0.0 9.6 12.4
5/5/24 65.5 1704 36.3 0512 0.00 0.10 11.99 4.5 17.5 1707 0.123 1.23 457 39.5 88 40 0.00 0.00 90 3.4 0.9 248 189 5.6 2351 -6.3 1305 - - 0.01 0110 0.01 0155 0.0 0.0 8.2 12.3
5/4/24 59.4 1019 39.1 0525 0.10 0.10 11.99 4.4 20.9 1144 0.080 1.30 308 44.3 86 69 0.00 0.00 100 2.5 0.0 245 188 5.7 0525 -3.8 1107 0.03 1759 0.06 1812 0.08 1857 0.0 0.0 7.6 12.4
5/3/24 82.5 1600 39.3 0559 0.00 0.00 11.89 2.8 14.2 1815 0.199 1.38 604 45.8 84 29 7.64 0.00 100 11.8 10.9 242 188 6.7 0020 -5.0 1356 - - - - - - 0.0 0.0 3.5 12.3
5/2/24 82.6 1624 33.9 0448 0.00 0.00 11.89 2.9 15.2 1609 0.220 1.37 645 40.6 86 26 8.98 0.00 100 13.0 8.2 231 177 8.5 0239 -6.0 1201 - - - - - - 0.0 0.0 6.5 12.3
5/1/24 80.8 1514 32.8 0621 0.00 0.00 11.89 2.7 16.2 1716 0.217 1.30 652 35.2 88 13 8.04 0.00 80 10.9 6.8 218 169 15.1 2143 -5.7 1148 - - - - - - 0.0 0.0 8.2 12.3
4/30/24 80.3 1722 31.6 0601 0.00 1.66 11.89 2.7 13.8 1632 0.202 1.21 633 40.8 90 20 7.14 0.00 60 10.2 5.9 207 162 9.4 2213 -6.0 1324 - - - - - - 0.1 0.0 8.7 12.3
4/29/24 77.5 1627 36.7 0524 0.00 1.66 11.89 3.0 16.2 1724 0.192 1.12 621 44.0 89 36 6.01 0.00 40 9.3 7.1 197 156 7.9 2315 -5.7 1236 - - - - - - 0.0 0.0 7.7 12.4
4/28/24 78.0 1624 36.2 0600 0.00 1.66 11.89 4.2 17.2 1728 0.190 1.10 608 44.8 90 39 6.45 0.00 20 9.8 7.1 187 149 5.2 2355 -5.5 1538 - - - - - - 0.0 0.0 7.3 12.4
4/27/24 72.6 1608 39.6 0340 0.00 1.66 11.89 3.6 13.8 1317 0.165 1.12 581 44.9 89 41 1.69 0.00 30 7.3 6.1 178 142 5.9 0256 -5.2 1332 - - - - - - 0.0 0.0 6.4 12.4
4/26/24 68.9 1502 46.2 0044 0.00 1.66 11.89 9.4 25.2 1508 0.184 1.12 609 44.6 87 31 0.00 0.00 40 6.7 7.6 170 136 1.5 2043 -5.7 1217 - - - - - - 0.0 0.0 0.0 12.4
4/25/24 69.2 1603 48.2 0406 0.00 1.66 11.89 5.6 18.8 1810 0.144 1.07 496 47.6 87 45 0.00 0.00 50 6.6 8.7 164 128 2.0 0405 -6.6 1124 - - - - - - 0.0 0.0 0.0 12.5
4/24/24 66.5 1415 38.4 0155 0.00 1.66 11.89 3.2 16.2 1627 0.132 1.10 528 44.9 89 54 0.00 0.00 60 4.2 2.4 157 119 5.8 0200 -5.4 1403 - - - - - - 0.0 0.0 6.3 12.4
4/23/24 64.2 1521 40.3 0001 0.00 1.66 11.89 4.9 17.5 1429 0.117 1.14 456 45.1 88 58 0.00 0.00 70 3.5 2.2 153 117 5.2 0000 -5.5 1402 - - - - - - 0.0 0.0 2.6 12.4
4/22/24 76.4 1303 44.2 0623 0.00 1.66 11.89 3.4 19.8 1600 0.172 1.19 616 49.8 86 54 4.85 0.00 80 8.7 10.3 149 115 7.5 0107 -4.3 0838 - - - - - - 0.0 0.0 0.8 12.4
4/21/24 84.4 1551 39.1 0628 0.00 1.66 11.89 2.2 11.8 1318 0.200 1.13 626 47.4 88 27 8.81 0.00 60 14.2 11.8 141 104 12.1 1927 -4.2 0736 - - - - - - 0.0 0.0 4.5 12.4
4/20/24 80.3 1626 40.2 0508 0.00 1.66 11.89 2.8 11.1 1145 0.168 1.04 580 48.9 88 41 6.59 0.00 40 10.5 10.2 126 93 11.6 2108 -4.3 1155 - - - - - - 0.0 0.0 5.7 12.4
4/19/24 73.9 1607 43.5 0335 0.00 1.66 11.89 2.6 11.5 1312 0.139 0.92 504 47.9 86 48 4.41 0.00 50 6.8 8.7 116 82 6.9 2224 -4.0 1255 - - - - - - 0.0 0.0 1.9 12.4
Max 91.7 - 48.2 - 0.10 1.66 11.99 9.4 25.2 - 0.261 1.66 667 49.8 95 69 9.27 0.00 - 17.7 17.1 - - 15.1 - -3.8 - - - 0.06 - 0.08 - 1.3 0.0 9.6 12.5
Avg - - - - - - - 3.6 - - - - - 44.2 - - 4.77 0.00 - 9.9 8.8 - - - - - - - - - - - - 0.0 0.0 4.6 -
Min 59.4 - 30.3 - 0.00 0.00 11.89 2.2 11.1 - 0.080 0.92 308 35.2 84 13 0.00 0.00 - 2.5 0.0 - - 1.5 - -7.1 - - - 0.01 - 0.01 - 0.0 0.0 0.0 12.3
Total - - - - - - - - - - - - - - - - 142.99 0.00 - 298.4 263.2 - - - - - - - - - - - - 1.5 0.0 138.2 -